Meadville, Missouri
Current Conditions -  °F | °C
As of 5:55 AM on Tuesday 27 Jan 2015 (Local Time) from KIRK Reporting Station
Clear Clear  
Wind Chill: 26°   Ceiling: Unl
Heat Index: 32°   Visibility: 10mi
Dew Point: 29°   Wind: 6mph
Humidity: 88%   Direction: 320°NW
Pressure: 30.07"   Gusts: NA
Location:  39.78°N, 93.3°W
Report Text: KIRK 271155Z AUTO 32005KT 10SM CLR 00/M02 A3007 RMK AO2 SLP192 T00001017 10033 20000 53016
Loading
Personal Weather Stations






























Interactive Weather Map New forecast layout! Learn more

10-Day Weather Forecast

Advertisements
Track Severe Weather on mobile